Time;durP1;ratioP1;P1;durP2;ratioP2;P2;SDS_P1;SDS_P2;PMS_P1;PMS_P2;Temp;Humidity;BMP_temperature;BMP_pressure;BME280_temperature;BME280_humidity;BME280_pressure;Samples;Min_cycle;Max_cycle;Signal;HPM_P1;HPM_P2
2023/05/14 00:02:15;;;;;;;25.48;8.35;;;16.50;99.90;;;;;;6282430;22;20384;-94
2023/05/14 00:08:08;;;;;;;25.45;8.85;;;16.50;99.90;;;;;;6229326;22;19918;-91
2023/05/14 00:10:35;;;;;;;18.55;8.43;;;16.50;99.90;;;;;;6257705;22;20432;-91
2023/05/14 00:13:01;;;;;;;19.40;8.43;;;16.50;99.90;;;;;;6257087;22;20017;-93
2023/05/14 00:15:28;;;;;;;27.75;8.93;;;16.50;99.90;;;;;;6256991;22;20003;-90
2023/05/14 00:17:57;;;;;;;23.15;8.68;;;16.60;99.90;;;;;;6257220;22;20440;-93
2023/05/14 00:20:24;;;;;;;20.10;7.75;;;16.50;99.90;;;;;;6257542;22;20035;-92
2023/05/14 00:36:26;;;;;;;;;;;;;;;;;;;;;
2023/05/14 00:44:18;;;;;;;;;;;;;;;;;;;;;
2023/05/14 00:52:02;;;;;;;;;;;;;;;;;;;;;
2023/05/14 00:55:18;;;;;;;;;;;;;;;;;;;;;
2023/05/14 01:01:20;;;;;;;27.58;8.25;;;16.60;99.90;;;;;;6307825;22;20027;-92
2023/05/14 01:08:52;;;;;;;;;;;;;;;;;;;;;
2023/05/14 01:30:17;;;;;;;;;;;;;;;;;;;;;
2023/05/14 01:37:12;;;;;;;19.00;7.68;;;16.20;99.90;;;;;;6158850;23;20067;-92
2023/05/14 01:41:09;;;;;;;28.27;8.35;;;16.20;99.90;;;;;;6111124;23;20006;-94
2023/05/14 01:47:55;;;;;;;;;;;16.30;99.90;;;;;;6013908;23;20044;-92
2023/05/14 02:02:11;;;;;;;;;;;;;;;;;;;;;
2023/05/14 02:09:52;;;;;;;17.88;6.78;;;16.30;99.90;;;;;;6040584;23;20108;-93
2023/05/14 02:13:39;;;;;;;22.38;6.65;;;16.40;99.90;;;;;;5882650;24;20082;-92
2023/05/14 02:17:18;;;;;;;;;;;;;;;;;;;;;
2023/05/14 02:20:27;;;;;;;15.50;7.05;;;16.30;99.90;;;;;;6283621;22;20015;-93
2023/05/14 02:23:15;;;;;;;20.52;8.18;;;16.30;99.90;;;;;;6260455;22;20007;-91
2023/05/14 02:25:50;;;;;;;13.90;7.05;;;16.30;99.90;;;;;;6257240;22;20034;-91
2023/05/14 02:28:22;;;;;;;18.00;7.80;;;16.30;99.90;;;;;;6231000;22;20086;-92
2023/05/14 02:43:50;;;;;;;21.45;8.05;;;16.40;99.90;;;;;;6311968;22;20152;-92
2023/05/14 02:46:18;;;;;;;24.02;7.90;;;16.40;99.90;;;;;;6258224;22;20420;-92
2023/05/14 02:49:07;;;;;;;20.38;8.02;;;16.40;99.90;;;;;;6258925;22;20098;-92
2023/05/14 02:51:56;;;;;;;26.92;9.25;;;16.40;99.90;;;;;;6259996;22;20010;-93
2023/05/14 02:55:31;;;;;;;24.95;8.60;;;16.40;99.90;;;;;;6288361;22;20086;-93
2023/05/14 02:59:08;;;;;;;21.23;7.85;;;16.40;99.90;;;;;;6260265;22;20003;-92
2023/05/14 03:13:06;;;;;;;21.00;8.80;;;16.50;99.90;;;;;;6314022;22;20098;-92
2023/05/14 03:16:46;;;;;;;;;;;;;;;;;;;;;
2023/05/14 03:36:18;;;;;;;23.80;9.35;;;16.70;99.90;;;;;;6310886;22;20023;-93
2023/05/14 04:27:29;;;;;;;17.65;8.93;;;17.00;99.90;;;;;;6321587;22;20069;-92
2023/05/14 06:18:17;;;;;;;28.77;12.32;;;18.10;99.90;;;;;;6298458;22;20044;-94
2023/05/14 09:08:15;;;;;;;24.63;16.40;;;19.10;99.90;;;;;;6298267;22;20222;31
2023/05/14 09:10:42;;;;;;;32.17;16.70;;;19.10;99.90;;;;;;6196075;23;20031;-92
2023/05/14 09:13:19;;;;;;;30.10;16.65;;;19.10;99.90;;;;;;6222489;23;20012;-93
2023/05/14 09:15:50;;;;;;;32.00;16.80;;;19.10;99.90;;;;;;6221855;23;20054;-93
2023/05/14 09:18:17;;;;;;;37.67;16.88;;;19.00;99.90;;;;;;6220582;23;20429;-92
2023/05/14 09:20:43;;;;;;;32.38;16.30;;;19.00;99.90;;;;;;6191866;23;20008;-93
2023/05/14 09:23:09;;;;;;;27.95;15.80;;;19.00;99.90;;;;;;6217710;23;20027;-93
2023/05/14 09:25:36;;;;;;;39.22;17.00;;;19.10;99.90;;;;;;6216932;23;20008;-93
2023/05/14 09:28:06;;;;;;;28.45;16.13;;;19.20;99.90;;;;;;6216975;23;20063;-93
2023/05/14 09:30:33;;;;;;;29.88;16.98;;;19.40;99.90;;;;;;6216192;23;20043;-92
2023/05/14 09:33:03;;;;;;;25.63;16.92;;;19.60;99.90;;;;;;6191927;23;20075;-93
2023/05/14 09:35:32;;;;;;;34.40;18.25;;;19.60;99.90;;;;;;6191890;23;20010;-93
2023/05/14 09:37:59;;;;;;;23.83;18.30;;;19.60;99.90;;;;;;6216226;23;20017;-93
2023/05/14 09:40:25;;;;;;;26.20;17.42;;;19.50;99.90;;;;;;6215823;23;20000;-92
2023/05/14 09:42:52;;;;;;;29.38;17.25;;;19.30;99.90;;;;;;6216147;23;20017;-92
2023/05/14 09:45:18;;;;;;;29.05;17.17;;;19.20;99.90;;;;;;6217786;23;20000;-92
2023/05/14 09:47:52;;;;;;;29.27;17.27;;;19.10;99.90;;;;;;6229180;23;20005;-94
2023/05/14 09:50:18;;;;;;;28.35;16.30;;;19.20;99.90;;;;;;6191247;23;20024;-93
2023/05/14 09:52:47;;;;;;;23.85;16.40;;;19.30;99.90;;;;;;6215700;23;20034;-93
2023/05/14 09:55:14;;;;;;;29.67;17.08;;;19.30;99.90;;;;;;6215688;23;20015;-93
2023/05/14 09:57:41;;;;;;;36.15;18.15;;;19.70;99.90;;;;;;6215577;23;20008;-92
2023/05/14 10:00:08;;;;;;;29.75;18.00;;;20.00;99.90;;;;;;6190413;23;20012;-93
2023/05/14 10:02:37;;;;;;;48.78;18.88;;;20.20;99.90;;;;;;6215975;23;20004;-93
2023/05/14 10:05:06;;;;;;;31.60;19.23;;;20.20;99.90;;;;;;6190492;23;20327;-93
2023/05/14 10:07:41;;;;;;;26.70;18.95;;;20.20;99.90;;;;;;6216124;23;20008;-94
2023/05/14 10:10:13;;;;;;;34.45;17.95;;;19.70;99.90;;;;;;6213222;23;20099;-92
2023/05/14 10:12:40;;;;;;;28.00;17.85;;;19.50;99.90;;;;;;6220832;23;20024;-92
2023/05/14 10:15:18;;;;;;;33.08;16.92;;;19.20;99.90;;;;;;6196147;23;20342;-92
2023/05/14 10:17:50;;;;;;;28.25;15.48;;;19.00;99.90;;;;;;6221235;23;20008;-92
2023/05/14 10:20:17;;;;;;;33.30;15.45;;;18.90;99.90;;;;;;6245506;22;20008;-92
2023/05/14 10:22:44;;;;;;;37.95;16.95;;;18.90;99.90;;;;;;6220584;23;20015;-92
2023/05/14 10:25:11;;;;;;;31.00;15.13;;;18.90;99.90;;;;;;6245509;23;20387;-93
2023/05/14 10:27:38;;;;;;;30.55;15.00;;;18.90;99.90;;;;;;6221071;23;20340;-92
2023/05/14 10:30:11;;;;;;;33.25;15.57;;;19.00;99.90;;;;;;6195801;23;20012;-93
2023/05/14 10:32:40;;;;;;;29.42;15.60;;;19.10;99.90;;;;;;6220896;23;20012;-93
2023/05/14 10:35:24;;;;;;;29.58;14.40;;;19.30;99.90;;;;;;6220920;23;20007;-93
2023/05/14 10:37:51;;;;;;;28.17;15.57;;;19.10;99.90;;;;;;6220617;23;20019;-92
2023/05/14 10:40:18;;;;;;;38.83;15.35;;;19.10;99.90;;;;;;6195524;23;20111;-92
2023/05/14 10:42:46;;;;;;;35.28;15.93;;;19.10;99.90;;;;;;6220343;23;20099;-92
2023/05/14 10:45:14;;;;;;;43.10;15.73;;;18.90;99.90;;;;;;6220672;23;20036;-92
2023/05/14 10:47:46;;;;;;;38.28;15.35;;;19.00;99.90;;;;;;6221012;23;20473;-93
2023/05/14 10:50:14;;;;;;;33.20;15.00;;;18.90;99.90;;;;;;6195510;23;20020;-92
2023/05/14 10:52:44;;;;;;;28.50;15.68;;;18.70;99.90;;;;;;6220355;23;20004;-93
2023/05/14 10:55:15;;;;;;;33.40;14.07;;;18.50;99.90;;;;;;6195699;23;20079;-93
2023/05/14 10:57:44;;;;;;;29.15;14.27;;;18.50;99.90;;;;;;6195380;23;20023;-92
2023/05/14 11:00:11;;;;;;;35.47;15.43;;;18.50;99.90;;;;;;6221000;23;20015;-93
2023/05/14 11:02:40;;;;;;;31.58;13.60;;;18.40;99.90;;;;;;6197721;23;20426;-92
2023/05/14 11:05:20;;;;;;;50.92;15.45;;;18.30;99.90;;;;;;6223710;23;20058;-92
2023/05/14 11:07:50;;;;;;;29.90;13.93;;;18.30;99.90;;;;;;6197544;23;20004;-92
2023/05/14 11:10:24;;;;;;;45.38;13.57;;;18.20;99.90;;;;;;6222562;23;20030;-92
2023/05/14 11:12:52;;;;;;;35.88;12.75;;;18.20;99.90;;;;;;6222374;23;20008;-92
2023/05/14 11:15:21;;;;;;;29.55;12.27;;;18.30;99.90;;;;;;6196924;23;20012;-92
2023/05/14 11:17:48;;;;;;;36.60;11.75;;;18.20;99.90;;;;;;6236799;23;19995;-92
2023/05/14 11:20:16;;;;;;;38.72;12.60;;;18.30;99.90;;;;;;6167627;23;20013;-92
2023/05/14 11:22:47;;;;;;;45.78;13.77;;;18.40;99.90;;;;;;6137700;23;20079;-92
2023/05/14 11:25:24;;;;;;;38.17;13.32;;;18.40;99.90;;;;;;6138787;23;20442;-93
2023/05/14 11:27:54;;;;;;;35.10;12.77;;;18.40;99.90;;;;;;6137106;23;20023;-93
2023/05/14 11:30:21;;;;;;;38.72;13.90;;;18.40;99.90;;;;;;6137959;23;20137;-92
2023/05/14 12:45:14;;;;;;;;;;;;;;;;;;;;;
2023/05/14 12:49:05;;;;;;;39.28;12.02;;;17.60;99.90;;;;;;5881987;24;20005;-94
2023/05/14 12:52:17;;;;;;;44.85;12.23;;;17.50;99.90;;;;;;5850000;24;20094;-93
2023/05/14 13:46:12;;;;;;;39.13;13.75;;;18.70;99.90;;;;;;6307359;22;20084;-93
2023/05/14 13:59:10;;;;;;;;;;;;;;;;;;;;;
2023/05/14 15:10:58;;;;;;;33.20;13.88;;;19.00;99.90;;;;;;6315448;22;20031;-93
2023/05/14 15:29:27;;;;;;;;;;;;;;;;;;;;;
2023/05/14 15:37:02;;;;;;;44.42;12.50;;;18.10;99.90;;;;;;5975831;24;20012;-94
2023/05/14 15:47:02;;;;;;;44.80;11.98;;;18.00;99.90;;;;;;5943854;23;20013;-93
2023/05/14 18:34:07;;;;;;;;;;;;;;;;;;;;;
2023/05/14 18:39:18;;;;;;;55.22;13.15;;;17.80;99.90;;;;;;6309646;22;20080;-91
2023/05/14 18:41:48;;;;;;;43.45;12.13;;;17.70;99.90;;;;;;6255846;22;20038;-92
2023/05/14 18:44:14;;;;;;;52.17;12.38;;;17.70;99.90;;;;;;6255974;22;20367;-93
2023/05/14 18:46:41;;;;;;;46.13;12.45;;;17.70;99.90;;;;;;6270737;22;20048;-92
2023/05/14 18:49:11;;;;;;;40.38;12.32;;;17.70;99.90;;;;;;6264491;22;20058;-91
2023/05/14 18:51:39;;;;;;;52.90;12.95;;;17.70;99.90;;;;;;6257788;22;20015;-93
2023/05/14 18:54:14;;;;;;;44.13;12.13;;;17.70;99.90;;;;;;6258715;22;20003;-93
2023/05/14 18:56:43;;;;;;;45.10;13.02;;;17.80;99.90;;;;;;6254429;22;20015;-93
2023/05/14 18:59:10;;;;;;;43.10;11.77;;;17.80;99.90;;;;;;6256149;22;20064;-93
2023/05/14 19:01:36;;;;;;;39.60;12.20;;;17.80;99.90;;;;;;6256080;22;20007;-94
2023/05/14 19:04:06;;;;;;;42.15;10.95;;;17.70;99.90;;;;;;6262825;22;20003;-93
2023/05/14 19:06:37;;;;;;;54.00;13.80;;;17.70;99.90;;;;;;6269453;22;20032;-93
2023/05/14 19:09:10;;;;;;;47.13;12.63;;;17.70;99.90;;;;;;6272009;22;20102;-93
2023/05/14 19:12:13;;;;;;;43.67;12.27;;;17.70;99.90;;;;;;6271574;22;20007;-93
2023/05/14 19:33:07;;;;;;;43.65;10.77;;;17.50;99.90;;;;;;6269108;22;20018;-93
2023/05/14 19:55:49;;;;;;;37.53;11.30;;;17.20;99.90;;;;;;6104805;23;20029;-92
2023/05/14 19:58:25;;;;;;;45.88;11.35;;;17.20;99.90;;;;;;6080680;23;20034;-93
2023/05/14 20:22:59;;;;;;;60.33;13.82;;;17.10;99.90;;;;;;6317158;22;20506;-94
2023/05/14 20:25:37;;;;;;;55.92;11.98;;;17.10;99.90;;;;;;6270756;22;20033;-93
2023/05/14 20:28:37;;;;;;;49.15;12.32;;;17.10;99.90;;;;;;6280936;22;20043;-93
2023/05/14 20:35:00;;;;;;;;;;;;;;;;;;;;;
2023/05/14 20:38:07;;;;;;;50.38;12.00;;;17.10;99.90;;;;;;6313404;22;20385;-93
2023/05/14 20:40:35;;;;;;;55.33;12.07;;;17.10;99.90;;;;;;6270719;22;20012;-93
2023/05/14 21:10:46;;;;;;;;;;;;;;;;;;;;;
2023/05/14 21:13:27;;;;;;;;;;;;;;;;;;;;;
2023/05/14 21:17:51;;;;;;;;;;;;;;;;;;;;;
2023/05/14 21:23:48;;;;;;;47.60;12.57;;;17.00;99.90;;;;;;5828364;24;20034;-92
2023/05/14 21:26:15;;;;;;;42.03;13.02;;;17.00;99.90;;;;;;5801307;24;20018;-92
2023/05/14 21:28:41;;;;;;;56.75;12.95;;;17.00;99.90;;;;;;5803755;24;20555;-93
2023/05/14 21:40:17;;;;;;;53.10;13.73;;;16.90;99.90;;;;;;6157921;23;20077;-93
2023/05/14 23:04:55;;;;;;;50.67;12.88;;;16.60;99.90;;;;;;5910510;24;20108;-94
2023/05/14 23:07:55;;;;;;;;;;;;;;;;;;;;;
2023/05/14 23:11:11;;;;;;;49.10;13.15;;;16.50;99.90;;;;;;5913463;24;20045;-93
2023/05/14 23:13:49;;;;;;;60.83;14.05;;;16.50;99.90;;;;;;5859704;24;20022;-93
2023/05/14 23:16:59;;;;;;;53.42;14.07;;;16.60;99.90;;;;;;5901699;24;20028;-93
2023/05/14 23:19:57;;;;;;;;;;;;;;;;;;;;;
2023/05/14 23:22:52;;;;;;;50.00;11.93;;;16.60;99.90;;;;;;5904709;24;20045;-93
2023/05/14 23:47:19;;;;;;;60.17;12.13;;;16.60;99.90;;;;;;5467761;22;18654065;-93
2023/05/14 23:56:32;;;;;;;64.65;14.18;;;16.50;99.90;;;;;;6112155;23;20632;-92
2023/05/14 23:59:21;;;;;;;58.47;14.05;;;16.50;99.90;;;;;;6106220;23;20037;-93
